createdAt,value
2022-07-26T00:04:34.181Z,24.2
2022-07-26T00:09:36.995Z,23.9
2022-07-26T00:14:42.226Z,23.9
2022-07-26T00:19:44.798Z,23.9
2022-07-26T00:24:47.504Z,23.8
2022-07-26T00:29:50.537Z,23.8
2022-07-26T00:34:53.128Z,23.8
2022-07-26T00:39:55.676Z,23.8
2022-07-26T00:44:58.205Z,23.7
2022-07-26T00:50:00.533Z,23.6
2022-07-26T00:55:03.210Z,23.4
2022-07-26T01:00:05.509Z,23.4
2022-07-26T01:05:07.732Z,23.5
2022-07-26T01:10:10.441Z,23.4
2022-07-26T01:15:12.688Z,23.3
2022-07-26T01:20:16.210Z,23.2
2022-07-26T01:25:18.909Z,23.2
2022-07-26T01:30:21.340Z,23.1
2022-07-26T01:35:23.954Z,23.1
2022-07-26T01:40:31.715Z,23.2
2022-07-26T01:45:34.664Z,23.2
2022-07-26T01:50:37.076Z,23.1
2022-07-26T01:55:39.892Z,23.1
2022-07-26T02:00:42.515Z,23.1
2022-07-26T02:05:45.160Z,23.1
2022-07-26T02:10:49.835Z,23.1
2022-07-26T02:15:52.661Z,23
2022-07-26T02:20:55.968Z,23
2022-07-26T02:25:58.744Z,23
2022-07-26T02:31:03.442Z,23
2022-07-26T02:36:05.876Z,23
2022-07-26T02:41:08.831Z,23
2022-07-26T02:46:11.906Z,23
2022-07-26T02:51:14.205Z,23
2022-07-26T02:56:16.935Z,22.9
2022-07-26T03:01:19.667Z,22.8
2022-07-26T03:06:21.865Z,22.7
2022-07-26T03:11:25.033Z,22.7
2022-07-26T03:16:31.700Z,22.8
2022-07-26T03:21:34.000Z,22.7
2022-07-26T03:26:36.868Z,22.7
2022-07-26T03:31:39.654Z,22.7
2022-07-26T03:36:42.341Z,22.6
2022-07-26T03:41:45.831Z,22.8
2022-07-26T03:46:48.801Z,22.8
2022-07-26T03:51:51.036Z,22.8
2022-07-26T03:56:53.936Z,22.9
2022-07-26T04:01:56.974Z,23.1
2022-07-26T04:07:05.129Z,23.2
2022-07-26T04:12:01.136Z,23.3
2022-07-26T04:17:03.832Z,23.4
2022-07-26T04:22:06.249Z,23.3
2022-07-26T04:27:08.999Z,23.8
2022-07-26T04:32:11.436Z,23.8
2022-07-26T04:37:13.741Z,23.9
2022-07-26T04:42:16.346Z,24.2
2022-07-26T04:47:18.614Z,24.2
2022-07-26T04:52:21.422Z,24.7
2022-07-26T04:57:24.057Z,24.7
2022-07-26T05:07:27.601Z,25.1
2022-07-26T05:12:30.301Z,25.5
2022-07-26T05:17:36.509Z,25.7
2022-07-26T05:22:41.873Z,25.9
2022-07-26T05:27:44.210Z,25.8
2022-07-26T05:37:49.314Z,25.8
2022-07-26T05:42:52.669Z,26.6
2022-07-26T05:47:55.415Z,26.6
2022-07-26T05:52:57.815Z,26.9
2022-07-26T05:58:00.577Z,28.4
2022-07-26T06:03:03.513Z,28.8
2022-07-26T06:08:05.810Z,28.7
2022-07-26T06:13:08.038Z,29.2
2022-07-26T06:18:10.614Z,29.2
2022-07-26T06:23:13.864Z,28.9
2022-07-26T06:28:16.182Z,28.8
2022-07-26T06:33:18.553Z,29
2022-07-26T06:38:20.898Z,29.6
2022-07-26T06:48:25.010Z,30.5
2022-07-26T06:53:27.679Z,31.3
2022-07-26T06:58:30.688Z,31.7
2022-07-26T07:03:33.249Z,31.7
2022-07-26T07:08:36.989Z,32.4
2022-07-26T07:13:41.093Z,31.7
2022-07-26T07:18:43.526Z,31.6
2022-07-26T07:23:46.205Z,32.6
2022-07-26T07:28:50.814Z,32.9
2022-07-26T07:33:58.201Z,31.5
2022-07-26T07:39:15.731Z,31.2
2022-07-26T07:44:11.484Z,33
2022-07-26T07:49:15.962Z,33.6
2022-07-26T07:54:18.386Z,33.5
2022-07-26T07:59:25.246Z,33.6
2022-07-26T08:04:28.446Z,34.7
2022-07-26T08:09:34.950Z,35.3
2022-07-26T08:14:35.289Z,36.2
2022-07-26T08:19:44.809Z,36.3
2022-07-26T08:24:47.477Z,36.3
2022-07-26T08:29:49.845Z,37.4
2022-07-26T08:34:52.766Z,35.9
2022-07-26T08:40:00.062Z,36.3
2022-07-26T08:45:02.772Z,37.7
2022-07-26T08:50:06.836Z,38.4
2022-07-26T08:55:09.153Z,38.3
2022-07-26T09:00:11.682Z,37
2022-07-26T09:05:15.149Z,38.3
2022-07-26T09:10:18.012Z,36.9
2022-07-26T09:15:20.336Z,36.8
2022-07-26T09:20:29.630Z,39.2
2022-07-26T09:25:32.195Z,39.6
2022-07-26T09:30:34.781Z,37.1
2022-07-26T09:35:54.360Z,38.3
2022-07-26T09:40:53.266Z,39
2022-07-26T09:46:02.054Z,37.7
2022-07-26T09:51:04.721Z,37.7
2022-07-26T09:56:08.038Z,38.3
2022-07-26T10:01:10.296Z,38.3
2022-07-26T10:06:12.530Z,37.6
2022-07-26T10:16:23.115Z,38.1
2022-07-26T10:21:16.831Z,38.1
2022-07-26T10:26:19.216Z,39.1
2022-07-26T10:31:21.929Z,39.6
2022-07-26T10:36:24.316Z,39.5
2022-07-26T10:41:29.611Z,39.4
2022-07-26T10:46:32.315Z,40.3
2022-07-26T10:51:35.127Z,41.1
2022-07-26T10:56:37.452Z,41
2022-07-26T11:01:40.649Z,41.7
2022-07-26T11:06:43.129Z,41.6
2022-07-26T11:11:49.030Z,41.9
2022-07-26T11:16:51.932Z,41.7
2022-07-26T11:21:54.694Z,41.2
2022-07-26T11:26:56.983Z,41.1
2022-07-26T11:32:18.503Z,36.9
2022-07-26T11:37:02.484Z,38.5
2022-07-26T11:42:05.079Z,39.7
2022-07-26T11:47:07.655Z,37.4
2022-07-26T11:52:09.928Z,37.2
2022-07-26T12:02:13.460Z,36
2022-07-26T12:07:15.891Z,36
2022-07-26T12:12:20.655Z,33.2
2022-07-26T12:17:23.198Z,32.9
2022-07-26T12:22:25.814Z,32.8
2022-07-26T12:27:29.013Z,31.2
2022-07-26T12:32:31.729Z,30.4
2022-07-26T12:37:42.191Z,29.9
2022-07-26T12:42:36.802Z,29.3
2022-07-26T12:47:39.452Z,28.9
2022-07-26T12:52:41.757Z,28.8
2022-07-26T12:57:49.476Z,28.4
2022-07-26T13:02:49.331Z,28.3
2022-07-26T13:07:52.987Z,29
2022-07-26T13:12:55.635Z,30.2
2022-07-26T13:17:58.279Z,30.2
2022-07-26T13:23:00.647Z,30.2
2022-07-26T13:28:03.212Z,29.8
2022-07-26T13:33:06.299Z,29.2
2022-07-26T13:38:08.615Z,29.1
2022-07-26T13:43:10.926Z,28.8
2022-07-26T13:48:13.451Z,27.8
2022-07-26T13:53:17.128Z,27.4
2022-07-26T13:58:19.408Z,27.4
2022-07-26T14:03:22.278Z,27.8
2022-07-26T14:08:24.894Z,27.8
2022-07-26T14:13:27.985Z,27.5
2022-07-26T14:18:30.314Z,27.5
2022-07-26T14:23:32.684Z,27.2
2022-07-26T14:28:36.192Z,26.7
2022-07-26T14:33:39.088Z,26.5
2022-07-26T14:38:41.434Z,26.5
2022-07-26T14:43:44.749Z,26
2022-07-26T14:48:56.845Z,25.6
2022-07-26T14:53:59.417Z,25.6
2022-07-26T14:59:02.325Z,25.7
2022-07-26T15:04:07.997Z,25.4
2022-07-26T15:09:14.599Z,25.1
2022-07-26T15:14:17.493Z,25
2022-07-26T15:19:27.162Z,24.9
2022-07-26T15:24:29.760Z,24.9
2022-07-26T15:29:32.140Z,24.9
2022-07-26T15:34:35.311Z,25.3
2022-07-26T15:39:37.787Z,25.3
2022-07-26T15:44:40.755Z,25.9
2022-07-26T15:49:43.844Z,26.3
2022-07-26T15:54:46.898Z,26.5
2022-07-26T15:59:49.657Z,26.4
2022-07-26T16:04:52.128Z,26.7
2022-07-26T16:09:54.581Z,26.6
2022-07-26T16:14:56.980Z,26.6
2022-07-26T16:20:00.211Z,26.6
2022-07-26T16:30:03.358Z,26.4
2022-07-26T16:35:06.278Z,26.4
2022-07-26T16:40:09.057Z,25.9
2022-07-26T16:45:11.491Z,25.9
2022-07-26T16:50:28.332Z,25.5
2022-07-26T16:55:21.114Z,25.4
2022-07-26T17:00:24.018Z,25.1
2022-07-26T17:05:26.696Z,25.2
2022-07-26T17:10:28.973Z,25.1
2022-07-26T17:15:32.206Z,24.8
2022-07-26T17:20:37.374Z,24.6
2022-07-26T17:25:40.406Z,24.3
2022-07-26T17:30:42.803Z,24.3
2022-07-26T17:40:49.811Z,24.1
2022-07-26T17:45:53.177Z,24.1
2022-07-26T17:50:55.925Z,24.2
2022-07-26T17:55:58.610Z,24.1
2022-07-26T18:01:01.251Z,24.1
2022-07-26T18:06:04.467Z,24.3
2022-07-26T18:11:07.694Z,24.2
2022-07-26T18:16:10.762Z,24.1
2022-07-26T18:21:13.375Z,24.1
2022-07-26T18:26:17.411Z,23.9
2022-07-26T18:31:21.054Z,23.9
2022-07-26T18:36:23.962Z,24.1
2022-07-26T18:41:29.740Z,24
2022-07-26T18:46:36.242Z,23.8
2022-07-26T18:51:42.043Z,23.8
2022-07-26T18:56:45.142Z,23.5
2022-07-26T19:01:48.177Z,23.6
2022-07-26T19:06:51.920Z,23.5
2022-07-26T19:11:54.930Z,23.4
2022-07-26T19:16:58.146Z,23.3
2022-07-26T19:22:01.082Z,23.2
2022-07-26T19:27:03.700Z,23.2
2022-07-26T19:32:06.682Z,23
2022-07-26T19:37:10.025Z,22.9
2022-07-26T19:42:13.378Z,22.9
2022-07-26T19:47:16.407Z,22.8
2022-07-26T19:57:20.182Z,22.6
2022-07-26T20:02:25.579Z,22.6
2022-07-26T20:07:30.413Z,22.5
2022-07-26T20:12:33.109Z,22.4
2022-07-26T20:17:35.704Z,22.4
2022-07-26T20:22:38.958Z,22.2
2022-07-26T20:27:42.008Z,22.2
2022-07-26T20:32:49.821Z,22
2022-07-26T20:37:53.202Z,22
2022-07-26T20:43:00.555Z,21.9
2022-07-26T20:47:57.260Z,21.9
2022-07-26T20:53:00.188Z,21.9
2022-07-26T20:58:02.927Z,21.7
2022-07-26T21:03:05.377Z,21.7
2022-07-26T21:08:08.016Z,21.6
2022-07-26T21:13:11.053Z,21.7
2022-07-26T21:18:15.497Z,21.7
2022-07-26T21:23:21.452Z,21.7
2022-07-26T21:28:26.877Z,21.6
2022-07-26T21:38:30.715Z,21.6
2022-07-26T21:43:33.989Z,21.7
2022-07-26T21:48:38.200Z,21.5
2022-07-26T21:53:41.352Z,21.4
2022-07-26T21:58:44.736Z,21.4
2022-07-26T22:03:49.359Z,21.4
2022-07-26T22:08:52.231Z,21.3
2022-07-26T22:13:55.286Z,21.1
2022-07-26T22:18:57.891Z,21.1
2022-07-26T22:24:04.196Z,21.2
2022-07-26T22:29:07.225Z,21
2022-07-26T22:34:09.981Z,21
2022-07-26T22:39:14.357Z,20.8
2022-07-26T22:44:18.400Z,20.7
2022-07-26T22:49:21.326Z,20.7
2022-07-26T22:54:24.342Z,20.6
2022-07-26T22:59:27.594Z,20.6
2022-07-26T23:04:32.186Z,20.4
2022-07-26T23:09:36.153Z,20.3
2022-07-26T23:14:38.737Z,20.3
2022-07-26T23:19:41.781Z,20.4
2022-07-26T23:24:45.751Z,20.5
2022-07-26T23:29:50.727Z,20.1
2022-07-26T23:34:53.323Z,20
2022-07-26T23:39:56.406Z,19.9
2022-07-26T23:44:59.602Z,19.9
2022-07-26T23:50:03.207Z,19.7
2022-07-26T23:55:05.953Z,19.5
